sensor_id;sensor_type;location;lat;lon;timestamp;temperature;humidity
20568;DHT22;10442;49.932;11.592;2022-12-07T00:01:26;6.50;77.70
20568;DHT22;10442;49.932;11.592;2022-12-07T00:03:55;6.50;77.70
20568;DHT22;10442;49.932;11.592;2022-12-07T00:06:28;6.50;77.80
20568;DHT22;10442;49.932;11.592;2022-12-07T00:08:55;6.50;77.80
20568;DHT22;10442;49.932;11.592;2022-12-07T00:11:23;6.40;77.70
20568;DHT22;10442;49.932;11.592;2022-12-07T00:13:53;6.50;77.90
20568;DHT22;10442;49.932;11.592;2022-12-07T00:16:22;6.40;77.80
20568;DHT22;10442;49.932;11.592;2022-12-07T00:18:50;6.50;77.60
20568;DHT22;10442;49.932;11.592;2022-12-07T00:21:21;6.40;77.20
20568;DHT22;10442;49.932;11.592;2022-12-07T00:23:50;6.40;76.90
20568;DHT22;10442;49.932;11.592;2022-12-07T00:26:32;6.30;76.70
20568;DHT22;10442;49.932;11.592;2022-12-07T00:29:07;6.30;76.40
20568;DHT22;10442;49.932;11.592;2022-12-07T00:31:36;6.20;76.10
20568;DHT22;10442;49.932;11.592;2022-12-07T00:34:07;6.20;76.10
20568;DHT22;10442;49.932;11.592;2022-12-07T00:36:38;6.10;76.00
20568;DHT22;10442;49.932;11.592;2022-12-07T00:39:06;6.00;76.10
20568;DHT22;10442;49.932;11.592;2022-12-07T00:41:33;5.90;76.10
20568;DHT22;10442;49.932;11.592;2022-12-07T00:44:01;5.90;76.20
20568;DHT22;10442;49.932;11.592;2022-12-07T00:46:29;5.80;76.20
20568;DHT22;10442;49.932;11.592;2022-12-07T00:48:57;5.70;76.10
20568;DHT22;10442;49.932;11.592;2022-12-07T00:51:25;5.70;76.20
20568;DHT22;10442;49.932;11.592;2022-12-07T00:53:52;5.60;76.40
20568;DHT22;10442;49.932;11.592;2022-12-07T00:56:24;5.60;76.60
20568;DHT22;10442;49.932;11.592;2022-12-07T00:58:59;5.50;76.60
20568;DHT22;10442;49.932;11.592;2022-12-07T01:01:30;5.40;76.80
20568;DHT22;10442;49.932;11.592;2022-12-07T01:03:58;5.40;77.00
20568;DHT22;10442;49.932;11.592;2022-12-07T01:06:29;5.40;77.10
20568;DHT22;10442;49.932;11.592;2022-12-07T01:08:57;5.30;77.00
20568;DHT22;10442;49.932;11.592;2022-12-07T01:11:28;5.30;77.10
20568;DHT22;10442;49.932;11.592;2022-12-07T01:13:57;5.30;77.90
20568;DHT22;10442;49.932;11.592;2022-12-07T01:16:27;5.30;77.20
20568;DHT22;10442;49.932;11.592;2022-12-07T01:18:55;5.20;77.30
20568;DHT22;10442;49.932;11.592;2022-12-07T01:21:25;5.20;78.20
20568;DHT22;10442;49.932;11.592;2022-12-07T01:23:53;5.20;77.60
20568;DHT22;10442;49.932;11.592;2022-12-07T01:26:22;5.20;77.70
20568;DHT22;10442;49.932;11.592;2022-12-07T01:28:51;5.10;78.40
20568;DHT22;10442;49.932;11.592;2022-12-07T01:31:20;5.10;77.70
20568;DHT22;10442;49.932;11.592;2022-12-07T01:33:51;5.10;77.70
20568;DHT22;10442;49.932;11.592;2022-12-07T01:36:24;5.10;77.70
20568;DHT22;10442;49.932;11.592;2022-12-07T01:38:55;5.10;77.70
20568;DHT22;10442;49.932;11.592;2022-12-07T01:41:26;5.10;77.70
20568;DHT22;10442;49.932;11.592;2022-12-07T01:44:14;5.10;77.80
20568;DHT22;10442;49.932;11.592;2022-12-07T01:46:51;5.10;77.90
20568;DHT22;10442;49.932;11.592;2022-12-07T01:52:02;5.00;78.10
20568;DHT22;10442;49.932;11.592;2022-12-07T01:54:32;5.00;78.20
20568;DHT22;10442;49.932;11.592;2022-12-07T01:57:00;5.00;78.20
20568;DHT22;10442;49.932;11.592;2022-12-07T01:59:28;5.00;78.20
20568;DHT22;10442;49.932;11.592;2022-12-07T02:01:56;5.00;78.40
20568;DHT22;10442;49.932;11.592;2022-12-07T02:04:24;5.00;78.40
20568;DHT22;10442;49.932;11.592;2022-12-07T02:06:52;5.00;78.50
20568;DHT22;10442;49.932;11.592;2022-12-07T02:09:20;5.00;78.50
20568;DHT22;10442;49.932;11.592;2022-12-07T02:11:48;5.00;78.50
20568;DHT22;10442;49.932;11.592;2022-12-07T02:14:15;5.00;78.70
20568;DHT22;10442;49.932;11.592;2022-12-07T02:19:46;5.00;78.80
20568;DHT22;10442;49.932;11.592;2022-12-07T02:22:47;5.00;78.80
20568;DHT22;10442;49.932;11.592;2022-12-07T02:25:24;5.00;78.80
20568;DHT22;10442;49.932;11.592;2022-12-07T02:28:06;5.10;78.80
20568;DHT22;10442;49.932;11.592;2022-12-07T02:30:37;5.10;78.80
20568;DHT22;10442;49.932;11.592;2022-12-07T02:33:23;5.10;78.90
20568;DHT22;10442;49.932;11.592;2022-12-07T02:36:02;5.10;78.90
20568;DHT22;10442;49.932;11.592;2022-12-07T02:38:38;5.10;78.90
20568;DHT22;10442;49.932;11.592;2022-12-07T02:41:17;5.10;78.90
20568;DHT22;10442;49.932;11.592;2022-12-07T02:43:48;5.10;78.90
20568;DHT22;10442;49.932;11.592;2022-12-07T02:46:21;5.10;79.00
20568;DHT22;10442;49.932;11.592;2022-12-07T02:48:51;5.10;78.90
20568;DHT22;10442;49.932;11.592;2022-12-07T02:51:19;5.10;78.90
20568;DHT22;10442;49.932;11.592;2022-12-07T02:53:48;5.10;78.90
20568;DHT22;10442;49.932;11.592;2022-12-07T03:02:17;5.10;78.90
20568;DHT22;10442;49.932;11.592;2022-12-07T03:07:51;5.10;78.60
20568;DHT22;10442;49.932;11.592;2022-12-07T03:13:18;5.00;78.70
20568;DHT22;10442;49.932;11.592;2022-12-07T03:18:24;5.00;78.60
20568;DHT22;10442;49.932;11.592;2022-12-07T03:20:56;4.90;78.30
20568;DHT22;10442;49.932;11.592;2022-12-07T03:23:25;4.90;78.30
20568;DHT22;10442;49.932;11.592;2022-12-07T03:25:56;4.80;78.20
20568;DHT22;10442;49.932;11.592;2022-12-07T03:28:36;4.80;78.30
20568;DHT22;10442;49.932;11.592;2022-12-07T03:31:18;4.70;78.40
20568;DHT22;10442;49.932;11.592;2022-12-07T03:40:19;4.60;79.90
20568;DHT22;10442;49.932;11.592;2022-12-07T03:42:50;4.50;79.50
20568;DHT22;10442;49.932;11.592;2022-12-07T03:45:20;4.60;79.60
20568;DHT22;10442;49.932;11.592;2022-12-07T03:47:54;4.60;79.90
20568;DHT22;10442;49.932;11.592;2022-12-07T03:50:38;4.60;80.00
20568;DHT22;10442;49.932;11.592;2022-12-07T03:53:14;4.70;80.10
20568;DHT22;10442;49.932;11.592;2022-12-07T03:55:44;4.70;80.10
20568;DHT22;10442;49.932;11.592;2022-12-07T03:58:16;4.80;80.20
20568;DHT22;10442;49.932;11.592;2022-12-07T04:00:45;4.80;80.20
20568;DHT22;10442;49.932;11.592;2022-12-07T04:03:12;4.90;80.20
20568;DHT22;10442;49.932;11.592;2022-12-07T04:05:40;4.90;80.10
20568;DHT22;10442;49.932;11.592;2022-12-07T04:08:08;5.00;80.20
20568;DHT22;10442;49.932;11.592;2022-12-07T04:10:36;5.00;80.10
20568;DHT22;10442;49.932;11.592;2022-12-07T04:13:03;5.10;80.10
20568;DHT22;10442;49.932;11.592;2022-12-07T04:15:31;5.10;80.10
20568;DHT22;10442;49.932;11.592;2022-12-07T04:17:58;5.10;79.90
20568;DHT22;10442;49.932;11.592;2022-12-07T04:20:25;5.20;80.00
20568;DHT22;10442;49.932;11.592;2022-12-07T04:22:53;5.20;79.80
20568;DHT22;10442;49.932;11.592;2022-12-07T04:25:20;5.20;79.50
20568;DHT22;10442;49.932;11.592;2022-12-07T04:27:47;5.20;79.40
20568;DHT22;10442;49.932;11.592;2022-12-07T04:30:15;5.20;79.40
20568;DHT22;10442;49.932;11.592;2022-12-07T04:32:42;5.30;79.40
20568;DHT22;10442;49.932;11.592;2022-12-07T04:35:09;5.30;79.30
20568;DHT22;10442;49.932;11.592;2022-12-07T04:37:37;5.30;79.30
20568;DHT22;10442;49.932;11.592;2022-12-07T04:40:08;5.30;79.20
20568;DHT22;10442;49.932;11.592;2022-12-07T04:42:38;5.30;79.20
20568;DHT22;10442;49.932;11.592;2022-12-07T04:45:06;5.30;79.20
20568;DHT22;10442;49.932;11.592;2022-12-07T04:47:33;5.30;79.10
20568;DHT22;10442;49.932;11.592;2022-12-07T04:50:01;5.30;79.00
20568;DHT22;10442;49.932;11.592;2022-12-07T04:52:29;5.30;79.00
20568;DHT22;10442;49.932;11.592;2022-12-07T04:54:56;5.40;79.00
20568;DHT22;10442;49.932;11.592;2022-12-07T04:57:24;5.30;78.80
20568;DHT22;10442;49.932;11.592;2022-12-07T04:59:51;5.30;78.80
20568;DHT22;10442;49.932;11.592;2022-12-07T05:02:18;5.30;78.80
20568;DHT22;10442;49.932;11.592;2022-12-07T05:04:46;5.40;78.90
20568;DHT22;10442;49.932;11.592;2022-12-07T05:07:13;5.30;78.80
20568;DHT22;10442;49.932;11.592;2022-12-07T05:09:40;5.30;78.90
20568;DHT22;10442;49.932;11.592;2022-12-07T05:12:08;5.30;78.80
20568;DHT22;10442;49.932;11.592;2022-12-07T05:14:35;5.30;78.80
20568;DHT22;10442;49.932;11.592;2022-12-07T05:17:03;5.40;78.90
20568;DHT22;10442;49.932;11.592;2022-12-07T05:19:31;5.40;78.70
20568;DHT22;10442;49.932;11.592;2022-12-07T05:21:59;5.40;78.70
20568;DHT22;10442;49.932;11.592;2022-12-07T05:24:26;5.40;78.70
20568;DHT22;10442;49.932;11.592;2022-12-07T05:26:54;5.40;78.60
20568;DHT22;10442;49.932;11.592;2022-12-07T05:29:21;5.40;78.60
20568;DHT22;10442;49.932;11.592;2022-12-07T05:31:49;5.40;78.50
20568;DHT22;10442;49.932;11.592;2022-12-07T05:34:16;5.40;78.50
20568;DHT22;10442;49.932;11.592;2022-12-07T05:36:43;5.40;78.60
20568;DHT22;10442;49.932;11.592;2022-12-07T05:39:11;5.40;78.70
20568;DHT22;10442;49.932;11.592;2022-12-07T05:41:38;5.40;78.60
20568;DHT22;10442;49.932;11.592;2022-12-07T05:44:24;5.40;78.50
20568;DHT22;10442;49.932;11.592;2022-12-07T05:46:52;5.40;78.40
20568;DHT22;10442;49.932;11.592;2022-12-07T05:49:19;5.40;78.40
20568;DHT22;10442;49.932;11.592;2022-12-07T05:51:47;5.40;78.40
20568;DHT22;10442;49.932;11.592;2022-12-07T05:54:14;5.40;78.40
20568;DHT22;10442;49.932;11.592;2022-12-07T05:56:42;5.40;78.40
20568;DHT22;10442;49.932;11.592;2022-12-07T05:59:09;5.40;78.50
20568;DHT22;10442;49.932;11.592;2022-12-07T06:01:52;5.40;78.50
20568;DHT22;10442;49.932;11.592;2022-12-07T06:04:20;5.40;78.50
20568;DHT22;10442;49.932;11.592;2022-12-07T06:06:48;5.40;78.40
20568;DHT22;10442;49.932;11.592;2022-12-07T06:09:16;5.40;78.50
20568;DHT22;10442;49.932;11.592;2022-12-07T06:11:45;5.40;78.50
20568;DHT22;10442;49.932;11.592;2022-12-07T06:14:32;5.40;78.40
20568;DHT22;10442;49.932;11.592;2022-12-07T06:16:59;5.30;78.20
20568;DHT22;10442;49.932;11.592;2022-12-07T06:19:27;5.40;78.20
20568;DHT22;10442;49.932;11.592;2022-12-07T06:21:55;5.30;78.00
20568;DHT22;10442;49.932;11.592;2022-12-07T06:24:22;5.30;78.00
20568;DHT22;10442;49.932;11.592;2022-12-07T06:26:50;5.30;78.00
20568;DHT22;10442;49.932;11.592;2022-12-07T06:29:18;5.30;78.00
20568;DHT22;10442;49.932;11.592;2022-12-07T06:31:46;5.30;78.10
20568;DHT22;10442;49.932;11.592;2022-12-07T06:34:16;5.20;78.20
20568;DHT22;10442;49.932;11.592;2022-12-07T06:36:44;5.20;78.30
20568;DHT22;10442;49.932;11.592;2022-12-07T06:39:12;5.20;78.40
20568;DHT22;10442;49.932;11.592;2022-12-07T06:41:39;5.20;78.40
20568;DHT22;10442;49.932;11.592;2022-12-07T06:44:07;5.20;78.50
20568;DHT22;10442;49.932;11.592;2022-12-07T06:46:34;5.20;78.60
20568;DHT22;10442;49.932;11.592;2022-12-07T06:49:05;5.20;78.80
20568;DHT22;10442;49.932;11.592;2022-12-07T06:51:33;5.30;78.90
20568;DHT22;10442;49.932;11.592;2022-12-07T06:54:04;5.20;78.90
20568;DHT22;10442;49.932;11.592;2022-12-07T06:56:31;5.20;78.90
20568;DHT22;10442;49.932;11.592;2022-12-07T06:58:58;5.30;79.10
20568;DHT22;10442;49.932;11.592;2022-12-07T07:01:26;5.30;79.10
20568;DHT22;10442;49.932;11.592;2022-12-07T07:03:54;5.30;79.00
20568;DHT22;10442;49.932;11.592;2022-12-07T07:06:21;5.30;78.90
20568;DHT22;10442;49.932;11.592;2022-12-07T07:08:48;5.40;79.10
20568;DHT22;10442;49.932;11.592;2022-12-07T07:11:16;5.40;79.00
20568;DHT22;10442;49.932;11.592;2022-12-07T07:13:44;5.30;78.90
20568;DHT22;10442;49.932;11.592;2022-12-07T07:16:12;5.40;79.00
20568;DHT22;10442;49.932;11.592;2022-12-07T07:18:40;5.40;79.00
20568;DHT22;10442;49.932;11.592;2022-12-07T07:21:08;5.40;78.90
20568;DHT22;10442;49.932;11.592;2022-12-07T07:23:35;5.30;78.90
20568;DHT22;10442;49.932;11.592;2022-12-07T07:26:03;5.30;78.90
20568;DHT22;10442;49.932;11.592;2022-12-07T07:28:30;5.30;78.90
20568;DHT22;10442;49.932;11.592;2022-12-07T07:30:57;5.30;78.90
20568;DHT22;10442;49.932;11.592;2022-12-07T07:33:25;5.30;78.90
20568;DHT22;10442;49.932;11.592;2022-12-07T07:35:52;5.30;79.00
20568;DHT22;10442;49.932;11.592;2022-12-07T07:38:19;5.30;79.10
20568;DHT22;10442;49.932;11.592;2022-12-07T07:40:47;5.40;79.10
20568;DHT22;10442;49.932;11.592;2022-12-07T07:43:15;5.40;79.10
20568;DHT22;10442;49.932;11.592;2022-12-07T07:45:42;5.40;79.40
20568;DHT22;10442;49.932;11.592;2022-12-07T07:48:09;5.30;79.20
20568;DHT22;10442;49.932;11.592;2022-12-07T07:50:37;5.40;79.20
20568;DHT22;10442;49.932;11.592;2022-12-07T07:53:04;5.40;79.20
20568;DHT22;10442;49.932;11.592;2022-12-07T07:55:31;5.40;79.20
20568;DHT22;10442;49.932;11.592;2022-12-07T07:57:59;5.40;79.20
20568;DHT22;10442;49.932;11.592;2022-12-07T08:00:26;5.40;79.10
20568;DHT22;10442;49.932;11.592;2022-12-07T08:02:54;5.50;79.10
20568;DHT22;10442;49.932;11.592;2022-12-07T08:05:21;5.50;79.20
20568;DHT22;10442;49.932;11.592;2022-12-07T08:07:49;5.50;79.20
20568;DHT22;10442;49.932;11.592;2022-12-07T08:10:16;5.50;79.10
20568;DHT22;10442;49.932;11.592;2022-12-07T08:12:44;5.50;79.20
20568;DHT22;10442;49.932;11.592;2022-12-07T08:15:30;5.50;79.30
20568;DHT22;10442;49.932;11.592;2022-12-07T08:17:59;5.50;79.20
20568;DHT22;10442;49.932;11.592;2022-12-07T08:20:29;5.50;79.30
20568;DHT22;10442;49.932;11.592;2022-12-07T08:22:57;5.50;79.10
20568;DHT22;10442;49.932;11.592;2022-12-07T08:25:24;5.50;79.10
20568;DHT22;10442;49.932;11.592;2022-12-07T08:27:52;5.50;79.10
20568;DHT22;10442;49.932;11.592;2022-12-07T08:30:20;5.60;79.30
20568;DHT22;10442;49.932;11.592;2022-12-07T08:32:48;5.60;79.20
20568;DHT22;10442;49.932;11.592;2022-12-07T08:35:16;5.50;79.20
20568;DHT22;10442;49.932;11.592;2022-12-07T08:37:43;5.60;79.30
20568;DHT22;10442;49.932;11.592;2022-12-07T08:40:12;5.60;79.20
20568;DHT22;10442;49.932;11.592;2022-12-07T08:42:49;5.60;79.30
20568;DHT22;10442;49.932;11.592;2022-12-07T08:45:18;5.60;79.30
20568;DHT22;10442;49.932;11.592;2022-12-07T08:48:07;5.60;79.20
20568;DHT22;10442;49.932;11.592;2022-12-07T08:50:36;5.60;79.20
20568;DHT22;10442;49.932;11.592;2022-12-07T08:53:05;5.60;79.30
20568;DHT22;10442;49.932;11.592;2022-12-07T08:55:33;5.60;79.20
20568;DHT22;10442;49.932;11.592;2022-12-07T08:58:02;5.70;79.40
20568;DHT22;10442;49.932;11.592;2022-12-07T09:00:30;5.70;79.40
20568;DHT22;10442;49.932;11.592;2022-12-07T09:02:58;5.70;79.30
20568;DHT22;10442;49.932;11.592;2022-12-07T09:05:26;5.70;79.30
20568;DHT22;10442;49.932;11.592;2022-12-07T09:07:57;5.70;79.30
20568;DHT22;10442;49.932;11.592;2022-12-07T09:10:27;5.80;79.30
20568;DHT22;10442;49.932;11.592;2022-12-07T09:12:55;5.80;79.20
20568;DHT22;10442;49.932;11.592;2022-12-07T09:15:22;5.80;79.30
20568;DHT22;10442;49.932;11.592;2022-12-07T09:17:50;5.90;79.10
20568;DHT22;10442;49.932;11.592;2022-12-07T09:20:19;6.00;79.10
20568;DHT22;10442;49.932;11.592;2022-12-07T09:22:53;5.90;79.10
20568;DHT22;10442;49.932;11.592;2022-12-07T09:25:21;5.90;79.10
20568;DHT22;10442;49.932;11.592;2022-12-07T09:27:55;5.90;79.10
20568;DHT22;10442;49.932;11.592;2022-12-07T09:30:23;5.90;79.00
20568;DHT22;10442;49.932;11.592;2022-12-07T09:32:53;5.90;79.10
20568;DHT22;10442;49.932;11.592;2022-12-07T09:35:21;6.00;79.10
20568;DHT22;10442;49.932;11.592;2022-12-07T09:37:49;6.00;79.10
20568;DHT22;10442;49.932;11.592;2022-12-07T09:40:18;6.00;79.20
20568;DHT22;10442;49.932;11.592;2022-12-07T09:42:54;6.00;79.20
20568;DHT22;10442;49.932;11.592;2022-12-07T09:45:34;6.00;79.10
20568;DHT22;10442;49.932;11.592;2022-12-07T09:48:03;6.00;79.10
20568;DHT22;10442;49.932;11.592;2022-12-07T09:50:31;6.10;79.10
20568;DHT22;10442;49.932;11.592;2022-12-07T09:53:16;6.00;79.00
20568;DHT22;10442;49.932;11.592;2022-12-07T09:55:47;6.00;78.90
20568;DHT22;10442;49.932;11.592;2022-12-07T09:58:20;6.10;79.20
20568;DHT22;10442;49.932;11.592;2022-12-07T10:00:57;6.10;79.30
20568;DHT22;10442;49.932;11.592;2022-12-07T10:03:27;6.10;79.30
20568;DHT22;10442;49.932;11.592;2022-12-07T10:05:56;6.10;79.20
20568;DHT22;10442;49.932;11.592;2022-12-07T10:08:25;6.10;79.10
20568;DHT22;10442;49.932;11.592;2022-12-07T10:10:55;6.10;79.20
20568;DHT22;10442;49.932;11.592;2022-12-07T10:13:40;6.10;79.20
20568;DHT22;10442;49.932;11.592;2022-12-07T10:16:37;6.10;79.10
20568;DHT22;10442;49.932;11.592;2022-12-07T10:19:26;6.10;79.00
20568;DHT22;10442;49.932;11.592;2022-12-07T10:24:27;6.20;79.10
20568;DHT22;10442;49.932;11.592;2022-12-07T10:26:55;6.20;79.10
20568;DHT22;10442;49.932;11.592;2022-12-07T10:29:24;6.20;79.10
20568;DHT22;10442;49.932;11.592;2022-12-07T10:32:00;6.20;79.20
20568;DHT22;10442;49.932;11.592;2022-12-07T10:37:14;6.30;79.00
20568;DHT22;10442;49.932;11.592;2022-12-07T10:39:46;6.30;78.90
20568;DHT22;10442;49.932;11.592;2022-12-07T10:42:26;6.30;78.80
20568;DHT22;10442;49.932;11.592;2022-12-07T10:45:15;6.30;78.70
20568;DHT22;10442;49.932;11.592;2022-12-07T10:53:26;6.30;78.50
20568;DHT22;10442;49.932;11.592;2022-12-07T11:01:32;6.40;78.80
20568;DHT22;10442;49.932;11.592;2022-12-07T11:07:28;6.40;78.80
20568;DHT22;10442;49.932;11.592;2022-12-07T11:12:52;6.40;78.90
20568;DHT22;10442;49.932;11.592;2022-12-07T11:15:53;6.40;79.00
20568;DHT22;10442;49.932;11.592;2022-12-07T11:18:32;6.40;78.90
20568;DHT22;10442;49.932;11.592;2022-12-07T11:35:33;6.70;79.20
20568;DHT22;10442;49.932;11.592;2022-12-07T11:38:11;6.80;79.10
20568;DHT22;10442;49.932;11.592;2022-12-07T11:40:40;6.80;78.90
20568;DHT22;10442;49.932;11.592;2022-12-07T11:43:21;6.90;79.60
20568;DHT22;10442;49.932;11.592;2022-12-07T11:48:40;7.00;78.70
20568;DHT22;10442;49.932;11.592;2022-12-07T11:51:11;7.00;78.30
20568;DHT22;10442;49.932;11.592;2022-12-07T11:53:46;7.00;78.40
20568;DHT22;10442;49.932;11.592;2022-12-07T11:56:17;7.10;78.30
20568;DHT22;10442;49.932;11.592;2022-12-07T11:58:54;7.10;78.30
20568;DHT22;10442;49.932;11.592;2022-12-07T12:07:17;7.40;78.00
20568;DHT22;10442;49.932;11.592;2022-12-07T12:13:05;7.50;77.60
20568;DHT22;10442;49.932;11.592;2022-12-07T12:16:01;7.50;77.30
20568;DHT22;10442;49.932;11.592;2022-12-07T12:21:10;7.60;77.00
20568;DHT22;10442;49.932;11.592;2022-12-07T12:24:09;7.60;76.70
20568;DHT22;10442;49.932;11.592;2022-12-07T12:26:40;7.70;76.60
20568;DHT22;10442;49.932;11.592;2022-12-07T12:29:31;7.70;76.20
20568;DHT22;10442;49.932;11.592;2022-12-07T12:32:20;7.80;75.90
20568;DHT22;10442;49.932;11.592;2022-12-07T12:35:02;7.70;76.10
20568;DHT22;10442;49.932;11.592;2022-12-07T12:42:51;7.70;76.40
20568;DHT22;10442;49.932;11.592;2022-12-07T12:45:29;7.80;75.90
20568;DHT22;10442;49.932;11.592;2022-12-07T12:48:01;7.80;75.90
20568;DHT22;10442;49.932;11.592;2022-12-07T12:50:36;7.80;75.30
20568;DHT22;10442;49.932;11.592;2022-12-07T13:03:33;7.80;74.90
20568;DHT22;10442;49.932;11.592;2022-12-07T13:08:52;7.80;74.90
20568;DHT22;10442;49.932;11.592;2022-12-07T13:11:36;7.80;75.00
20568;DHT22;10442;49.932;11.592;2022-12-07T13:17:12;7.80;75.30
20568;DHT22;10442;49.932;11.592;2022-12-07T13:20:03;7.80;75.30
20568;DHT22;10442;49.932;11.592;2022-12-07T13:25:18;7.80;74.40
20568;DHT22;10442;49.932;11.592;2022-12-07T13:28:14;7.70;74.30
20568;DHT22;10442;49.932;11.592;2022-12-07T13:33:28;7.70;74.60
20568;DHT22;10442;49.932;11.592;2022-12-07T13:35:57;7.60;74.40
20568;DHT22;10442;49.932;11.592;2022-12-07T13:38:30;7.60;74.40
20568;DHT22;10442;49.932;11.592;2022-12-07T13:41:22;7.60;74.30
20568;DHT22;10442;49.932;11.592;2022-12-07T13:43:51;7.60;74.70
20568;DHT22;10442;49.932;11.592;2022-12-07T13:46:26;7.50;74.30
20568;DHT22;10442;49.932;11.592;2022-12-07T13:48:54;7.50;74.10
20568;DHT22;10442;49.932;11.592;2022-12-07T13:51:25;7.50;74.40
20568;DHT22;10442;49.932;11.592;2022-12-07T13:53:55;7.50;74.20
20568;DHT22;10442;49.932;11.592;2022-12-07T13:56:31;7.50;74.30
20568;DHT22;10442;49.932;11.592;2022-12-07T13:59:00;7.40;74.30
20568;DHT22;10442;49.932;11.592;2022-12-07T14:01:31;7.40;74.10
20568;DHT22;10442;49.932;11.592;2022-12-07T14:04:41;7.40;74.00
20568;DHT22;10442;49.932;11.592;2022-12-07T14:10:00;7.30;73.70
20568;DHT22;10442;49.932;11.592;2022-12-07T14:12:29;7.20;73.60
20568;DHT22;10442;49.932;11.592;2022-12-07T14:14:58;7.20;73.80
20568;DHT22;10442;49.932;11.592;2022-12-07T14:17:28;7.20;74.10
20568;DHT22;10442;49.932;11.592;2022-12-07T14:19:57;7.20;74.20
20568;DHT22;10442;49.932;11.592;2022-12-07T14:22:36;7.10;74.00
20568;DHT22;10442;49.932;11.592;2022-12-07T14:25:16;7.10;74.10
20568;DHT22;10442;49.932;11.592;2022-12-07T14:27:49;7.10;73.80
20568;DHT22;10442;49.932;11.592;2022-12-07T14:30:18;7.00;73.90
20568;DHT22;10442;49.932;11.592;2022-12-07T14:32:50;7.00;74.00
20568;DHT22;10442;49.932;11.592;2022-12-07T14:35:19;7.00;74.00
20568;DHT22;10442;49.932;11.592;2022-12-07T14:37:48;6.90;74.20
20568;DHT22;10442;49.932;11.592;2022-12-07T14:40:22;6.90;74.30
20568;DHT22;10442;49.932;11.592;2022-12-07T14:42:54;6.90;74.30
20568;DHT22;10442;49.932;11.592;2022-12-07T14:45:23;6.90;74.30
20568;DHT22;10442;49.932;11.592;2022-12-07T14:47:50;6.90;74.40
20568;DHT22;10442;49.932;11.592;2022-12-07T14:50:41;6.90;74.50
20568;DHT22;10442;49.932;11.592;2022-12-07T14:53:33;6.90;74.50
20568;DHT22;10442;49.932;11.592;2022-12-07T14:56:03;6.80;74.50
20568;DHT22;10442;49.932;11.592;2022-12-07T14:58:32;6.80;74.30
20568;DHT22;10442;49.932;11.592;2022-12-07T15:01:00;6.80;74.50
20568;DHT22;10442;49.932;11.592;2022-12-07T15:03:27;6.80;74.70
20568;DHT22;10442;49.932;11.592;2022-12-07T15:05:55;6.80;74.80
20568;DHT22;10442;49.932;11.592;2022-12-07T15:08:22;6.80;74.90
20568;DHT22;10442;49.932;11.592;2022-12-07T15:10:50;6.80;75.00
20568;DHT22;10442;49.932;11.592;2022-12-07T15:13:18;6.80;74.90
20568;DHT22;10442;49.932;11.592;2022-12-07T15:16:05;6.80;74.80
20568;DHT22;10442;49.932;11.592;2022-12-07T15:18:32;6.80;74.80
20568;DHT22;10442;49.932;11.592;2022-12-07T15:21:00;6.70;74.80
20568;DHT22;10442;49.932;11.592;2022-12-07T15:23:27;6.70;74.80
20568;DHT22;10442;49.932;11.592;2022-12-07T15:25:54;6.70;74.90
20568;DHT22;10442;49.932;11.592;2022-12-07T15:28:22;6.70;74.90
20568;DHT22;10442;49.932;11.592;2022-12-07T15:30:50;6.70;74.90
20568;DHT22;10442;49.932;11.592;2022-12-07T15:33:17;6.60;74.90
20568;DHT22;10442;49.932;11.592;2022-12-07T15:35:45;6.60;75.00
20568;DHT22;10442;49.932;11.592;2022-12-07T15:38:13;6.60;75.10
20568;DHT22;10442;49.932;11.592;2022-12-07T15:40:40;6.60;75.30
20568;DHT22;10442;49.932;11.592;2022-12-07T15:43:09;6.50;75.20
20568;DHT22;10442;49.932;11.592;2022-12-07T15:45:57;6.50;75.30
20568;DHT22;10442;49.932;11.592;2022-12-07T15:48:25;6.50;75.50
20568;DHT22;10442;49.932;11.592;2022-12-07T15:51:04;6.60;75.60
20568;DHT22;10442;49.932;11.592;2022-12-07T15:53:32;6.50;75.40
20568;DHT22;10442;49.932;11.592;2022-12-07T15:56:00;6.60;75.50
20568;DHT22;10442;49.932;11.592;2022-12-07T15:58:28;6.50;75.30
20568;DHT22;10442;49.932;11.592;2022-12-07T16:00:56;6.50;75.30
20568;DHT22;10442;49.932;11.592;2022-12-07T16:03:23;6.50;75.30
20568;DHT22;10442;49.932;11.592;2022-12-07T16:05:51;6.50;75.30
20568;DHT22;10442;49.932;11.592;2022-12-07T16:08:20;6.50;76.20
20568;DHT22;10442;49.932;11.592;2022-12-07T16:10:47;6.40;75.30
20568;DHT22;10442;49.932;11.592;2022-12-07T16:13:15;6.40;75.30
20568;DHT22;10442;49.932;11.592;2022-12-07T16:15:43;6.40;75.40
20568;DHT22;10442;49.932;11.592;2022-12-07T16:18:10;6.40;75.50
20568;DHT22;10442;49.932;11.592;2022-12-07T16:20:38;6.30;75.50
20568;DHT22;10442;49.932;11.592;2022-12-07T16:23:06;6.30;75.40
20568;DHT22;10442;49.932;11.592;2022-12-07T16:25:34;6.30;75.50
20568;DHT22;10442;49.932;11.592;2022-12-07T16:28:01;6.30;75.50
20568;DHT22;10442;49.932;11.592;2022-12-07T16:30:29;6.30;75.60
20568;DHT22;10442;49.932;11.592;2022-12-07T16:32:56;6.30;75.70
20568;DHT22;10442;49.932;11.592;2022-12-07T16:35:29;6.20;75.60
20568;DHT22;10442;49.932;11.592;2022-12-07T16:37:56;6.20;75.80
20568;DHT22;10442;49.932;11.592;2022-12-07T16:40:24;6.20;75.70
20568;DHT22;10442;49.932;11.592;2022-12-07T16:42:51;6.20;75.80
20568;DHT22;10442;49.932;11.592;2022-12-07T16:45:19;6.20;75.80
20568;DHT22;10442;49.932;11.592;2022-12-07T16:47:47;6.20;75.90
20568;DHT22;10442;49.932;11.592;2022-12-07T16:50:15;6.20;75.90
20568;DHT22;10442;49.932;11.592;2022-12-07T16:52:42;6.20;75.90
20568;DHT22;10442;49.932;11.592;2022-12-07T16:55:09;6.20;75.90
20568;DHT22;10442;49.932;11.592;2022-12-07T16:57:37;6.20;75.90
20568;DHT22;10442;49.932;11.592;2022-12-07T17:00:05;6.20;76.70
20568;DHT22;10442;49.932;11.592;2022-12-07T17:02:33;6.20;75.90
20568;DHT22;10442;49.932;11.592;2022-12-07T17:05:00;6.30;76.00
20568;DHT22;10442;49.932;11.592;2022-12-07T17:07:29;6.20;76.00
20568;DHT22;10442;49.932;11.592;2022-12-07T17:09:59;6.30;76.00
20568;DHT22;10442;49.932;11.592;2022-12-07T17:12:26;6.30;76.00
20568;DHT22;10442;49.932;11.592;2022-12-07T17:14:53;6.20;75.80
20568;DHT22;10442;49.932;11.592;2022-12-07T17:17:40;6.30;75.90
20568;DHT22;10442;49.932;11.592;2022-12-07T17:20:08;6.20;75.90
20568;DHT22;10442;49.932;11.592;2022-12-07T17:22:35;6.30;76.00
20568;DHT22;10442;49.932;11.592;2022-12-07T17:25:04;6.30;76.10
20568;DHT22;10442;49.932;11.592;2022-12-07T17:27:32;6.30;76.10
20568;DHT22;10442;49.932;11.592;2022-12-07T17:30:00;6.30;76.00
20568;DHT22;10442;49.932;11.592;2022-12-07T17:32:27;6.20;76.10
20568;DHT22;10442;49.932;11.592;2022-12-07T17:34:55;6.20;76.00
20568;DHT22;10442;49.932;11.592;2022-12-07T17:37:22;6.20;76.00
20568;DHT22;10442;49.932;11.592;2022-12-07T17:39:50;6.20;76.10
20568;DHT22;10442;49.932;11.592;2022-12-07T17:42:18;6.20;76.20